Flight Track Log - Related Links

Times and Time Zones

All times are in EDT time to prevent confusion due to time zone crossing. See the ASQ5858 flight status page for this flight to view local times or setup timezone preferences in your user account.

Time Position Orientation Groundspeed Altitude Reporting Facility
EDT Latitude Longitude Course Direction KTS MPH feet Rate Location/Type
Wed 10:36:34 AM 42.9167 -78.7500 270° West 163 188 1,500  Level Buffalo TRACON
Wed 10:37:34 AM 42.9167 -78.8167 270° West 205 236 3,800 2,000 Climbing Buffalo TRACON
Wed 10:38:34 AM 42.9667 -78.8833 316° Northwest 262 302 5,500 2,053 Climbing Buffalo TRACON
Wed 10:39:28 AM 42.9833 -78.9500 289° West 250 288 7,700 2,100 Climbing Buffalo TRACON
Wed 10:40:34 AM 42.9833 -79.0500 270° West 240 276 9,700 1,318 Climbing Buffalo TRACON
Wed 10:41:40 AM 43.0000 -79.1667 281° West 303 349 10,600 1,053 Climbing Buffalo TRACON
Wed 10:42:00 AM 42.9667 -79.2876 270° West  Level FlightAware Approximate
Wed 10:42:28 AM 43.0000 -79.2667 270° West 319 367 11,700  Level Buffalo TRACON
Wed 10:43:27 AM 42.9833 -79.3667 257° West 320 368 13,000 1,361 Climbing Toronto Center
Wed 10:44:27 AM 43.0000 -79.5000 280° West 320 368 14,400 1,450 Climbing Toronto Center
Wed 10:45:27 AM 43.0000 -79.6167 270° West 330 380 15,900 1,400 Climbing Toronto Center
Wed 10:46:27 AM 43.0000 -79.7500 270° West 330 380 17,200 1,450 Climbing Toronto Center
Wed 10:47:27 AM 43.0000 -79.8667 270° West 320 368 18,800 1,500 Climbing Toronto Center
Wed 10:48:27 AM 43.0000 -79.9833 270° West 320 368 20,200 1,350 Climbing Toronto Center
Wed 10:49:27 AM 43.0167 -80.1167 280° West 320 368 21,500 1,350 Climbing Toronto Center
Wed 10:50:27 AM 43.0167 -80.2333 270° West 320 368 22,900 1,400 Climbing Toronto Center
Wed 10:51:27 AM 43.0167 -80.3667 270° West 320 368 24,300 1,450 Climbing Toronto Center
Wed 10:52:27 AM 43.0167 -80.4833 270° West 320 368 25,800 1,400 Climbing Toronto Center
Wed 10:53:27 AM 43.0167 -80.5833 270° West 310 357 27,100 1,350 Climbing Toronto Center
Wed 10:54:27 AM 43.0333 -80.7000 281° West 310 357 28,500 1,350 Climbing Toronto Center
Wed 10:55:27 AM 43.0167 -80.8167 259° West 300 345 29,800 1,400 Climbing Toronto Center
Wed 10:56:27 AM 43.0167 -80.9333 270° West 290 334 31,300 1,400 Climbing Toronto Center
Wed 10:57:27 AM 43.0167 -81.0500 270° West 290 334 32,600 1,300 Climbing Toronto Center
Wed 10:58:27 AM 43.0167 -81.1333 270° West 280 322 33,900 1,350 Climbing Toronto Center
Wed 10:59:27 AM 43.0167 -81.2500 270° West 260 299 35,300 1,050 Climbing Toronto Center
Wed 11:00:27 AM 43.0167 -81.3500 270° West 250 288 36,000 350 Climbing Toronto Center
Wed 11:01:27 AM 43.0167 -81.4333 270° West 260 299 36,000  Level Toronto Center
Wed 11:02:27 AM 43.0167 -81.5500 270° West 280 322 36,000  Level Toronto Center
Wed 11:03:27 AM 43.0167 -81.6667 270° West 290 334 36,000  Level Toronto Center
Wed 11:04:27 AM 43.0167 -81.7833 270° West 310 357 36,000  Level Toronto Center
Wed 11:05:27 AM 43.0167 -81.8833 270° West 320 368 36,000  Level Toronto Center
Wed 11:06:27 AM 43.0000 -82.0333 261° West 330 380 36,000  Level Toronto Center
Wed 11:07:27 AM 43.0000 -82.1667 270° West 330 380 36,000  Level Toronto Center
Wed 11:08:27 AM 43.0000 -82.2833 270° West 330 380 36,000  Level Toronto Center
Wed 11:09:27 AM 43.0000 -82.4167 270° West 330 380 36,000  Level Toronto Center
Wed 11:10:27 AM 43.0000 -82.5333 270° West 330 380 36,000 -250 Level Toronto Center
Wed 11:11:27 AM 42.9833 -82.6500 259° West 330 380 35,500 -617 Descending Toronto Center
Wed 11:12:14 AM 43.0006 -82.7492 283° West 331 381 34,900 -841 Descending Cleveland Center
Wed 11:13:14 AM 42.9958 -82.8825 267° West 331 381 34,000 -900 Descending Cleveland Center
Wed 11:14:14 AM 42.9911 -83.0128 267° West 343 395 33,100 -950 Descending Cleveland Center
Wed 11:15:14 AM 42.9861 -83.1461 267° West 349 402 32,100 -550 Descending Cleveland Center
Wed 11:16:14 AM 42.9831 -83.2794 268° West 354 407 32,000 -50 Descending Cleveland Center
Wed 11:17:14 AM 42.9778 -83.4125 267° West 354 407 32,000  Level Cleveland Center
Wed 11:18:14 AM 42.9725 -83.5456 267° West 354 407 32,000  Level Cleveland Center
Wed 11:19:14 AM 42.9667 -83.6789 267° West 354 407 32,000  Level Cleveland Center
Wed 11:20:14 AM 42.9611 -83.8089 267° West 349 402 32,000  Level Cleveland Center
Wed 11:21:14 AM 42.9472 -83.9303 261° West 344 396 32,000  Level Cleveland Center
Wed 11:22:14 AM 42.9350 -84.0600 263° West 344 396 32,000  Level Cleveland Center
Wed 11:23:14 AM 42.9203 -84.1983 262° West 349 402 32,000  Level Cleveland Center
Wed 11:25:03 AM 42.9019 -84.4147 263° West 344 396 32,000  Level Chicago Center
Wed 11:26:05 AM 42.8881 -84.5456 262° West 348 400 32,000  Level Chicago Center
Wed 11:27:07 AM 42.8744 -84.6753 262° West 348 400 32,000  Level Chicago Center
Wed 11:28:08 AM 42.8583 -84.8319 262° West 349 402 32,000  Level Chicago Center
Wed 11:29:10 AM 42.8447 -84.9625 262° West 349 402 32,000  Level Chicago Center
Wed 11:30:12 AM 42.8308 -85.0922 262° West 347 399 32,000  Level Chicago Center
Wed 11:31:14 AM 42.8167 -85.2242 262° West 352 405 32,000 -532 Level Chicago Center
Wed 11:32:16 AM 42.8025 -85.3550 262° West 349 402 30,900 -1,220 Descending Chicago Center
Wed 11:33:17 AM 42.7878 -85.4875 261° West 352 405 29,500 -1,366 Descending Chicago Center
Wed 11:34:19 AM 42.7678 -85.6067 257° West 326 375 28,100 -1,452 Descending Chicago Center
Wed 11:35:21 AM 42.7464 -85.7211 256° West 312 359 26,500 -1,790 Descending Chicago Center
Wed 11:36:23 AM 42.7228 -85.8506 256° West 296 341 24,400 -1,839 Descending Chicago Center
Wed 11:37:25 AM 42.7044 -85.9567 257° West 287 330 22,700 -1,694 Descending Chicago Center
Wed 11:38:27 AM 42.6822 -86.0753 256° West 315 362 20,900 -1,306 Descending Chicago Center
Wed 11:39:29 AM 42.6614 -86.1889 256° West 312 359 20,000 -435 Descending Chicago Center
Wed 11:40:31 AM 42.6403 -86.3022 256° West 310 357 20,000 -146 Level Chicago Center
Wed 11:41:32 AM 42.6197 -86.4114 256° West 302 348 19,700 -1,171 Descending Chicago Center
Wed 11:42:34 AM 42.5981 -86.5253 256° West 309 356 17,600 -2,177 Descending Chicago Center
Wed 11:43:36 AM 42.5717 -86.6661 256° West 319 367 15,200 -2,226 Descending Chicago Center
Wed 11:44:38 AM 42.5475 -86.7778 254° West 309 356 13,000 -2,081 Descending Chicago Center
Wed 11:45:40 AM 42.5169 -86.8856 249° West 307 353 10,900 -1,500 Descending Chicago Center
Wed 11:46:42 AM 42.4875 -86.9978 250° West 315 362 9,900 -435 Descending Chicago Center
Wed 11:47:44 AM 42.4581 -87.1017 249° West 299 344 10,000 -290 Climbing Chicago Center
Wed 11:48:46 AM 42.4303 -87.2039 250° West 290 334 9,300 -677 Descending Chicago Center
Wed 11:49:48 AM 42.4036 -87.2994 249° West 274 315 8,600 -871 Descending Chicago Center
Wed 11:50:50 AM 42.3719 -87.4133 249° West 272 313 7,500 -919 Descending Chicago Center
Wed 11:51:52 AM 42.3469 -87.5050 250° West 260 299 6,700 -677 Descending Chicago Center
Wed 11:52:54 AM 42.3083 -87.5747 233° Southwest 268 308 6,100 -387 Descending Chicago Center
Wed 11:53:56 AM 42.2172 -87.5633 175° South 273 314 5,900 -532 Descending Chicago Center
Wed 11:54:58 AM 42.1431 -87.5567 176° South 268 308 5,000 -848 Descending Chicago Center
Wed 11:55:35 AM 42.1000 -87.5333 158° South 272 313 4,500 -619 Descending Chicago TRACON
Wed 11:56:35 AM 42.0667 -87.4500 118° Southeast 256 295 4,000 -250 Descending Chicago TRACON
Wed 11:57:35 AM 42.0333 -87.4000 132° Southeast 244 281 4,000  Level Chicago TRACON
Wed 11:58:41 AM 42.0000 -87.4833 242° Southwest 213 245 4,000  Level Chicago TRACON
Wed 11:59:35 AM 42.0000 -87.5500 270° West 205 236 4,000  Level Chicago TRACON
Wed 12:00:35 PM 42.0000 -87.6333 270° West 207 238 4,000 -238 Level Chicago TRACON
Wed 12:01:41 PM 42.0000 -87.7167 270° West 207 238 3,500 -744 Descending Chicago TRACON
Wed 12:02:36 PM 42.0000 -87.7833 270° West 207 238 2,500 -991 Descending Chicago TRACON
Wed 12:03:36 PM 42.0000 -87.8333 270° West 141 162 1,600 -800 Descending Chicago TRACON
Wed 12:04:36 PM 42.0000 -87.8833 270° West 136 157 900 -700 Descending Chicago TRACON
Wed 12:06:00 PM 41.9817 -87.9067 217° Southwest  Level Estimated

Login

Don't have an account? Register now (free) for customized features, flight alerts, and more!